sensor_id;sensor_type;location;lat;lon;timestamp;temperature;humidity
21355;DHT22;10835;50.148;19.760;2023-09-19T00:00:39;28.40;56.60
21355;DHT22;10835;50.148;19.760;2023-09-19T00:03:10;28.60;56.70
21355;DHT22;10835;50.148;19.760;2023-09-19T00:05:39;28.90;56.40
21355;DHT22;10835;50.148;19.760;2023-09-19T00:08:12;29.00;56.20
21355;DHT22;10835;50.148;19.760;2023-09-19T00:10:43;29.00;56.30
21355;DHT22;10835;50.148;19.760;2023-09-19T00:13:12;29.00;56.30
21355;DHT22;10835;50.148;19.760;2023-09-19T00:15:44;29.00;56.10
21355;DHT22;10835;50.148;19.760;2023-09-19T00:18:17;28.80;56.80
21355;DHT22;10835;50.148;19.760;2023-09-19T00:20:46;28.80;56.10
21355;DHT22;10835;50.148;19.760;2023-09-19T00:23:17;28.80;56.70
21355;DHT22;10835;50.148;19.760;2023-09-19T00:25:48;29.00;56.20
21355;DHT22;10835;50.148;19.760;2023-09-19T00:28:17;28.70;56.00
21355;DHT22;10835;50.148;19.760;2023-09-19T00:30:49;28.40;56.80
21355;DHT22;10835;50.148;19.760;2023-09-19T00:33:18;28.80;57.00
21355;DHT22;10835;50.148;19.760;2023-09-19T00:35:47;29.00;56.40
21355;DHT22;10835;50.148;19.760;2023-09-19T00:38:16;29.20;56.20
21355;DHT22;10835;50.148;19.760;2023-09-19T00:40:50;29.30;55.80
21355;DHT22;10835;50.148;19.760;2023-09-19T00:43:19;29.30;55.80
21355;DHT22;10835;50.148;19.760;2023-09-19T00:45:51;29.60;55.70
21355;DHT22;10835;50.148;19.760;2023-09-19T00:48:21;29.70;55.60
21355;DHT22;10835;50.148;19.760;2023-09-19T00:50:51;29.60;55.40
21355;DHT22;10835;50.148;19.760;2023-09-19T00:53:22;29.80;55.20
21355;DHT22;10835;50.148;19.760;2023-09-19T00:55:55;29.80;55.30
21355;DHT22;10835;50.148;19.760;2023-09-19T00:58:24;30.00;55.10
21355;DHT22;10835;50.148;19.760;2023-09-19T01:00:53;30.10;55.00
21355;DHT22;10835;50.148;19.760;2023-09-19T01:03:23;30.30;54.70
21355;DHT22;10835;50.148;19.760;2023-09-19T01:05:51;30.10;55.10
21355;DHT22;10835;50.148;19.760;2023-09-19T01:08:20;30.30;54.00
21355;DHT22;10835;50.148;19.760;2023-09-19T01:10:53;30.10;54.40
21355;DHT22;10835;50.148;19.760;2023-09-19T01:13:31;29.70;54.80
21355;DHT22;10835;50.148;19.760;2023-09-19T01:16:07;30.10;54.20
21355;DHT22;10835;50.148;19.760;2023-09-19T01:18:46;30.20;54.60
21355;DHT22;10835;50.148;19.760;2023-09-19T01:21:22;30.10;54.70
21355;DHT22;10835;50.148;19.760;2023-09-19T01:24:17;30.30;55.40
21355;DHT22;10835;50.148;19.760;2023-09-19T01:27:12;30.30;54.60
21355;DHT22;10835;50.148;19.760;2023-09-19T01:29:48;30.40;54.30
21355;DHT22;10835;50.148;19.760;2023-09-19T01:32:19;30.20;54.40
21355;DHT22;10835;50.148;19.760;2023-09-19T01:34:52;29.90;54.70
21355;DHT22;10835;50.148;19.760;2023-09-19T01:37:24;30.20;54.90
21355;DHT22;10835;50.148;19.760;2023-09-19T01:39:55;30.30;54.80
21355;DHT22;10835;50.148;19.760;2023-09-19T01:42:31;30.30;54.90
21355;DHT22;10835;50.148;19.760;2023-09-19T01:45:07;30.30;54.90
21355;DHT22;10835;50.148;19.760;2023-09-19T01:47:48;29.90;55.60
21355;DHT22;10835;50.148;19.760;2023-09-19T01:50:26;30.10;56.10
21355;DHT22;10835;50.148;19.760;2023-09-19T01:53:04;29.50;55.90
21355;DHT22;10835;50.148;19.760;2023-09-19T01:55:47;29.70;56.80
21355;DHT22;10835;50.148;19.760;2023-09-19T01:58:21;29.90;56.80
21355;DHT22;10835;50.148;19.760;2023-09-19T02:00:53;30.30;56.60
21355;DHT22;10835;50.148;19.760;2023-09-19T02:03:24;30.10;56.50
21355;DHT22;10835;50.148;19.760;2023-09-19T02:05:54;30.20;56.60
21355;DHT22;10835;50.148;19.760;2023-09-19T02:08:23;29.90;56.70
21355;DHT22;10835;50.148;19.760;2023-09-19T02:10:52;29.50;56.80
21355;DHT22;10835;50.148;19.760;2023-09-19T02:13:22;29.80;57.70
21355;DHT22;10835;50.148;19.760;2023-09-19T02:15:52;29.90;57.40
21355;DHT22;10835;50.148;19.760;2023-09-19T02:18:20;29.80;57.60
21355;DHT22;10835;50.148;19.760;2023-09-19T02:20:50;29.90;57.80
21355;DHT22;10835;50.148;19.760;2023-09-19T02:23:21;29.90;57.90
21355;DHT22;10835;50.148;19.760;2023-09-19T02:25:53;30.00;57.40
21355;DHT22;10835;50.148;19.760;2023-09-19T02:28:21;29.70;58.00
21355;DHT22;10835;50.148;19.760;2023-09-19T02:30:50;29.60;58.20
21355;DHT22;10835;50.148;19.760;2023-09-19T02:33:19;29.40;58.30
21355;DHT22;10835;50.148;19.760;2023-09-19T02:35:54;29.20;58.70
21355;DHT22;10835;50.148;19.760;2023-09-19T02:38:24;29.10;59.10
21355;DHT22;10835;50.148;19.760;2023-09-19T02:40:53;29.40;59.30
21355;DHT22;10835;50.148;19.760;2023-09-19T02:43:22;29.20;59.50
21355;DHT22;10835;50.148;19.760;2023-09-19T02:45:51;29.80;58.60
21355;DHT22;10835;50.148;19.760;2023-09-19T02:48:20;29.50;58.80
21355;DHT22;10835;50.148;19.760;2023-09-19T02:50:49;29.20;58.50
21355;DHT22;10835;50.148;19.760;2023-09-19T02:53:19;29.10;59.80
21355;DHT22;10835;50.148;19.760;2023-09-19T02:55:48;29.30;59.90
21355;DHT22;10835;50.148;19.760;2023-09-19T02:58:16;29.40;59.90
21355;DHT22;10835;50.148;19.760;2023-09-19T03:00:46;29.60;59.80
21355;DHT22;10835;50.148;19.760;2023-09-19T03:03:17;29.70;59.60
21355;DHT22;10835;50.148;19.760;2023-09-19T03:05:46;29.70;59.50
21355;DHT22;10835;50.148;19.760;2023-09-19T03:08:20;29.90;59.50
21355;DHT22;10835;50.148;19.760;2023-09-19T03:10:49;29.80;59.10
21355;DHT22;10835;50.148;19.760;2023-09-19T03:13:18;29.90;59.10
21355;DHT22;10835;50.148;19.760;2023-09-19T03:15:48;29.70;59.00
21355;DHT22;10835;50.148;19.760;2023-09-19T03:18:22;29.90;59.40
21355;DHT22;10835;50.148;19.760;2023-09-19T03:20:53;29.70;59.00
21355;DHT22;10835;50.148;19.760;2023-09-19T03:23:24;29.80;59.40
21355;DHT22;10835;50.148;19.760;2023-09-19T03:25:53;30.00;59.40
21355;DHT22;10835;50.148;19.760;2023-09-19T03:28:22;30.00;59.20
21355;DHT22;10835;50.148;19.760;2023-09-19T03:30:58;30.00;58.90
21355;DHT22;10835;50.148;19.760;2023-09-19T03:33:29;29.80;59.00
21355;DHT22;10835;50.148;19.760;2023-09-19T03:36:00;30.00;58.90
21355;DHT22;10835;50.148;19.760;2023-09-19T03:38:33;30.20;58.60
21355;DHT22;10835;50.148;19.760;2023-09-19T03:41:02;30.10;58.90
21355;DHT22;10835;50.148;19.760;2023-09-19T03:43:33;30.20;59.10
21355;DHT22;10835;50.148;19.760;2023-09-19T03:46:03;30.30;58.70
21355;DHT22;10835;50.148;19.760;2023-09-19T03:48:33;30.20;58.90
21355;DHT22;10835;50.148;19.760;2023-09-19T03:51:03;30.30;58.80
21355;DHT22;10835;50.148;19.760;2023-09-19T03:53:33;30.10;59.20
21355;DHT22;10835;50.148;19.760;2023-09-19T03:56:01;30.00;59.10
21355;DHT22;10835;50.148;19.760;2023-09-19T03:58:32;30.30;59.10
21355;DHT22;10835;50.148;19.760;2023-09-19T04:01:05;30.20;59.00
21355;DHT22;10835;50.148;19.760;2023-09-19T04:03:34;30.00;58.90
21355;DHT22;10835;50.148;19.760;2023-09-19T04:06:13;30.00;59.30
21355;DHT22;10835;50.148;19.760;2023-09-19T04:08:46;30.10;59.40
21355;DHT22;10835;50.148;19.760;2023-09-19T04:11:15;30.20;59.00
21355;DHT22;10835;50.148;19.760;2023-09-19T04:13:45;29.70;59.40
21355;DHT22;10835;50.148;19.760;2023-09-19T04:16:15;29.80;59.70
21355;DHT22;10835;50.148;19.760;2023-09-19T04:18:44;29.60;59.70
21355;DHT22;10835;50.148;19.760;2023-09-19T04:21:12;29.20;60.60
21355;DHT22;10835;50.148;19.760;2023-09-19T04:23:41;29.70;60.90
21355;DHT22;10835;50.148;19.760;2023-09-19T04:26:11;29.90;60.30
21355;DHT22;10835;50.148;19.760;2023-09-19T04:28:40;29.80;60.40
21355;DHT22;10835;50.148;19.760;2023-09-19T04:31:08;29.70;60.10
21355;DHT22;10835;50.148;19.760;2023-09-19T04:33:37;29.70;60.50
21355;DHT22;10835;50.148;19.760;2023-09-19T04:36:06;30.00;59.70
21355;DHT22;10835;50.148;19.760;2023-09-19T04:38:55;29.90;60.20
21355;DHT22;10835;50.148;19.760;2023-09-19T04:41:25;30.00;59.90
21355;DHT22;10835;50.148;19.760;2023-09-19T04:43:53;29.60;60.30
21355;DHT22;10835;50.148;19.760;2023-09-19T04:46:23;30.00;60.40
21355;DHT22;10835;50.148;19.760;2023-09-19T04:48:51;30.00;60.30
21355;DHT22;10835;50.148;19.760;2023-09-19T04:51:20;30.10;60.00
21355;DHT22;10835;50.148;19.760;2023-09-19T04:53:49;29.80;59.80
21355;DHT22;10835;50.148;19.760;2023-09-19T04:56:17;29.30;60.70
21355;DHT22;10835;50.148;19.760;2023-09-19T04:58:49;29.60;61.00
21355;DHT22;10835;50.148;19.760;2023-09-19T05:01:18;29.20;61.20
21355;DHT22;10835;50.148;19.760;2023-09-19T05:03:46;29.30;62.10
21355;DHT22;10835;50.148;19.760;2023-09-19T05:06:19;29.70;61.50
21355;DHT22;10835;50.148;19.760;2023-09-19T05:08:48;29.90;60.70
21355;DHT22;10835;50.148;19.760;2023-09-19T05:11:18;29.90;60.60
21355;DHT22;10835;50.148;19.760;2023-09-19T05:13:50;29.90;60.70
21355;DHT22;10835;50.148;19.760;2023-09-19T05:16:20;29.80;60.50
21355;DHT22;10835;50.148;19.760;2023-09-19T05:18:49;29.90;61.30
21355;DHT22;10835;50.148;19.760;2023-09-19T05:21:18;30.00;61.00
21355;DHT22;10835;50.148;19.760;2023-09-19T05:23:46;29.90;60.90
21355;DHT22;10835;50.148;19.760;2023-09-19T05:26:14;30.20;61.10
21355;DHT22;10835;50.148;19.760;2023-09-19T05:28:43;30.20;60.80
21355;DHT22;10835;50.148;19.760;2023-09-19T05:31:13;30.40;60.80
21355;DHT22;10835;50.148;19.760;2023-09-19T05:33:42;30.60;61.20
21355;DHT22;10835;50.148;19.760;2023-09-19T05:36:11;30.50;60.00
21355;DHT22;10835;50.148;19.760;2023-09-19T05:38:39;30.60;59.90
21355;DHT22;10835;50.148;19.760;2023-09-19T05:41:09;30.50;59.60
21355;DHT22;10835;50.148;19.760;2023-09-19T05:43:41;30.60;59.60
21355;DHT22;10835;50.148;19.760;2023-09-19T05:46:12;30.70;59.20
21355;DHT22;10835;50.148;19.760;2023-09-19T05:48:43;30.70;59.10
21355;DHT22;10835;50.148;19.760;2023-09-19T05:51:11;30.70;58.90
21355;DHT22;10835;50.148;19.760;2023-09-19T05:53:40;30.50;59.80
21355;DHT22;10835;50.148;19.760;2023-09-19T05:56:10;30.60;59.10
21355;DHT22;10835;50.148;19.760;2023-09-19T05:58:41;30.70;59.10
21355;DHT22;10835;50.148;19.760;2023-09-19T06:01:12;30.80;59.10
21355;DHT22;10835;50.148;19.760;2023-09-19T06:03:45;30.30;59.20
21355;DHT22;10835;50.148;19.760;2023-09-19T06:06:14;30.40;59.80
21355;DHT22;10835;50.148;19.760;2023-09-19T06:08:44;30.60;59.90
21355;DHT22;10835;50.148;19.760;2023-09-19T06:11:12;30.60;59.80
21355;DHT22;10835;50.148;19.760;2023-09-19T06:13:41;30.80;59.40
21355;DHT22;10835;50.148;19.760;2023-09-19T06:16:09;30.80;59.50
21355;DHT22;10835;50.148;19.760;2023-09-19T06:18:39;30.80;59.50
21355;DHT22;10835;50.148;19.760;2023-09-19T06:21:08;30.90;59.10
21355;DHT22;10835;50.148;19.760;2023-09-19T06:23:39;30.80;59.10
21355;DHT22;10835;50.148;19.760;2023-09-19T06:26:08;30.80;59.00
21355;DHT22;10835;50.148;19.760;2023-09-19T06:28:37;30.90;58.70
21355;DHT22;10835;50.148;19.760;2023-09-19T06:31:05;30.90;58.90
21355;DHT22;10835;50.148;19.760;2023-09-19T06:33:38;30.80;58.90
21355;DHT22;10835;50.148;19.760;2023-09-19T06:36:07;31.00;58.90
21355;DHT22;10835;50.148;19.760;2023-09-19T06:38:36;31.00;58.90
21355;DHT22;10835;50.148;19.760;2023-09-19T06:41:06;31.10;58.60
21355;DHT22;10835;50.148;19.760;2023-09-19T06:43:35;31.10;58.50
21355;DHT22;10835;50.148;19.760;2023-09-19T06:46:04;31.10;58.30
21355;DHT22;10835;50.148;19.760;2023-09-19T06:48:34;30.90;58.80
21355;DHT22;10835;50.148;19.760;2023-09-19T06:51:04;30.90;58.90
21355;DHT22;10835;50.148;19.760;2023-09-19T06:53:33;30.40;59.70
21355;DHT22;10835;50.148;19.760;2023-09-19T06:56:03;30.60;59.10
21355;DHT22;10835;50.148;19.760;2023-09-19T06:58:32;30.70;59.30
21355;DHT22;10835;50.148;19.760;2023-09-19T07:01:02;30.50;59.60
21355;DHT22;10835;50.148;19.760;2023-09-19T07:03:30;30.50;59.90
21355;DHT22;10835;50.148;19.760;2023-09-19T07:06:00;30.50;60.00
21355;DHT22;10835;50.148;19.760;2023-09-19T07:08:33;30.40;59.80
21355;DHT22;10835;50.148;19.760;2023-09-19T07:11:01;30.30;60.00
21355;DHT22;10835;50.148;19.760;2023-09-19T07:13:33;30.60;59.80
21355;DHT22;10835;50.148;19.760;2023-09-19T07:16:08;30.60;59.70
21355;DHT22;10835;50.148;19.760;2023-09-19T07:18:40;30.70;59.50
21355;DHT22;10835;50.148;19.760;2023-09-19T07:21:13;30.80;59.50
21355;DHT22;10835;50.148;19.760;2023-09-19T07:23:44;30.80;59.30
21355;DHT22;10835;50.148;19.760;2023-09-19T07:26:13;30.70;59.20
21355;DHT22;10835;50.148;19.760;2023-09-19T07:28:41;30.80;59.10
21355;DHT22;10835;50.148;19.760;2023-09-19T07:31:09;30.70;59.50
21355;DHT22;10835;50.148;19.760;2023-09-19T07:33:43;30.90;59.30
21355;DHT22;10835;50.148;19.760;2023-09-19T07:36:12;30.90;59.10
21355;DHT22;10835;50.148;19.760;2023-09-19T07:38:41;30.90;59.10
21355;DHT22;10835;50.148;19.760;2023-09-19T07:41:11;30.90;59.20
21355;DHT22;10835;50.148;19.760;2023-09-19T07:43:40;30.80;59.10
21355;DHT22;10835;50.148;19.760;2023-09-19T07:46:10;30.60;59.30
21355;DHT22;10835;50.148;19.760;2023-09-19T07:48:39;30.20;60.00
21355;DHT22;10835;50.148;19.760;2023-09-19T07:51:08;30.00;60.40
21355;DHT22;10835;50.148;19.760;2023-09-19T07:53:37;29.80;61.10
21355;DHT22;10835;50.148;19.760;2023-09-19T07:56:08;29.60;61.00
21355;DHT22;10835;50.148;19.760;2023-09-19T07:58:40;29.00;62.40
21355;DHT22;10835;50.148;19.760;2023-09-19T08:01:11;28.60;63.90
21355;DHT22;10835;50.148;19.760;2023-09-19T08:03:41;27.90;65.20
21355;DHT22;10835;50.148;19.760;2023-09-19T08:06:13;27.70;66.20
21355;DHT22;10835;50.148;19.760;2023-09-19T08:08:41;27.30;67.40
21355;DHT22;10835;50.148;19.760;2023-09-19T08:11:10;26.90;68.10
21355;DHT22;10835;50.148;19.760;2023-09-19T08:13:43;26.60;69.40
21355;DHT22;10835;50.148;19.760;2023-09-19T08:16:13;26.60;70.10
21355;DHT22;10835;50.148;19.760;2023-09-19T08:18:42;26.60;70.10
21355;DHT22;10835;50.148;19.760;2023-09-19T08:21:12;26.80;69.50
21355;DHT22;10835;50.148;19.760;2023-09-19T08:23:44;26.70;70.00
21355;DHT22;10835;50.148;19.760;2023-09-19T08:26:12;27.00;69.40
21355;DHT22;10835;50.148;19.760;2023-09-19T08:28:42;27.00;68.70
21355;DHT22;10835;50.148;19.760;2023-09-19T08:31:11;26.80;68.70
21355;DHT22;10835;50.148;19.760;2023-09-19T08:33:39;27.00;68.90
21355;DHT22;10835;50.148;19.760;2023-09-19T08:36:09;26.90;68.60
21355;DHT22;10835;50.148;19.760;2023-09-19T08:38:39;27.30;68.70
21355;DHT22;10835;50.148;19.760;2023-09-19T08:41:08;27.50;67.80
21355;DHT22;10835;50.148;19.760;2023-09-19T08:43:36;27.60;67.00
21355;DHT22;10835;50.148;19.760;2023-09-19T08:46:10;27.60;67.20
21355;DHT22;10835;50.148;19.760;2023-09-19T08:48:45;27.50;67.50
21355;DHT22;10835;50.148;19.760;2023-09-19T08:51:21;27.40;67.30
21355;DHT22;10835;50.148;19.760;2023-09-19T08:53:58;27.60;66.40
21355;DHT22;10835;50.148;19.760;2023-09-19T08:56:32;27.70;66.90
21355;DHT22;10835;50.148;19.760;2023-09-19T08:59:03;27.70;66.00
21355;DHT22;10835;50.148;19.760;2023-09-19T09:01:36;27.90;66.10
21355;DHT22;10835;50.148;19.760;2023-09-19T09:04:11;27.90;65.60
21355;DHT22;10835;50.148;19.760;2023-09-19T09:06:41;28.00;65.40
21355;DHT22;10835;50.148;19.760;2023-09-19T09:09:11;28.00;65.30
21355;DHT22;10835;50.148;19.760;2023-09-19T09:11:42;27.90;66.20
21355;DHT22;10835;50.148;19.760;2023-09-19T09:14:14;28.20;65.40
21355;DHT22;10835;50.148;19.760;2023-09-19T09:16:43;27.90;65.50
21355;DHT22;10835;50.148;19.760;2023-09-19T09:19:12;27.80;65.90
21355;DHT22;10835;50.148;19.760;2023-09-19T09:21:41;27.60;66.40
21355;DHT22;10835;50.148;19.760;2023-09-19T09:24:28;27.70;66.00
21355;DHT22;10835;50.148;19.760;2023-09-19T09:27:00;27.90;66.60
21355;DHT22;10835;50.148;19.760;2023-09-19T09:29:41;27.80;65.40
21355;DHT22;10835;50.148;19.760;2023-09-19T09:32:24;27.80;65.80
21355;DHT22;10835;50.148;19.760;2023-09-19T09:34:54;27.90;65.10
21355;DHT22;10835;50.148;19.760;2023-09-19T09:37:28;27.70;65.40
21355;DHT22;10835;50.148;19.760;2023-09-19T09:39:59;27.50;66.20
21355;DHT22;10835;50.148;19.760;2023-09-19T09:42:47;27.40;66.50
21355;DHT22;10835;50.148;19.760;2023-09-19T09:45:20;27.60;66.70
21355;DHT22;10835;50.148;19.760;2023-09-19T09:47:57;27.60;66.20
21355;DHT22;10835;50.148;19.760;2023-09-19T09:50:26;27.80;66.20
21355;DHT22;10835;50.148;19.760;2023-09-19T09:53:19;27.80;65.40
21355;DHT22;10835;50.148;19.760;2023-09-19T09:56:01;28.10;64.50
21355;DHT22;10835;50.148;19.760;2023-09-19T09:58:34;27.90;64.70
21355;DHT22;10835;50.148;19.760;2023-09-19T10:01:04;27.80;65.10
21355;DHT22;10835;50.148;19.760;2023-09-19T10:03:39;27.80;65.40
21355;DHT22;10835;50.148;19.760;2023-09-19T10:06:12;28.00;66.00
21355;DHT22;10835;50.148;19.760;2023-09-19T10:09:03;28.30;65.50
21355;DHT22;10835;50.148;19.760;2023-09-19T10:11:43;28.50;64.70
21355;DHT22;10835;50.148;19.760;2023-09-19T10:14:13;28.20;64.50
21355;DHT22;10835;50.148;19.760;2023-09-19T10:16:46;28.30;65.00
21355;DHT22;10835;50.148;19.760;2023-09-19T10:19:21;28.80;64.40
21355;DHT22;10835;50.148;19.760;2023-09-19T10:21:54;28.60;64.00
21355;DHT22;10835;50.148;19.760;2023-09-19T10:24:25;28.70;64.50
21355;DHT22;10835;50.148;19.760;2023-09-19T10:26:55;28.60;64.10
21355;DHT22;10835;50.148;19.760;2023-09-19T10:29:25;28.50;64.20
21355;DHT22;10835;50.148;19.760;2023-09-19T10:31:58;28.80;63.50
21355;DHT22;10835;50.148;19.760;2023-09-19T10:34:30;28.80;63.90
21355;DHT22;10835;50.148;19.760;2023-09-19T10:37:00;28.70;63.70
21355;DHT22;10835;50.148;19.760;2023-09-19T10:39:33;28.40;64.30
21355;DHT22;10835;50.148;19.760;2023-09-19T10:42:03;28.60;64.50
21355;DHT22;10835;50.148;19.760;2023-09-19T10:44:33;28.60;64.30
21355;DHT22;10835;50.148;19.760;2023-09-19T10:47:02;28.30;64.40
21355;DHT22;10835;50.148;19.760;2023-09-19T10:49:37;28.10;65.60
21355;DHT22;10835;50.148;19.760;2023-09-19T10:52:11;28.10;65.80
21355;DHT22;10835;50.148;19.760;2023-09-19T10:54:48;28.10;66.00
21355;DHT22;10835;50.148;19.760;2023-09-19T10:57:19;28.30;65.20
21355;DHT22;10835;50.148;19.760;2023-09-19T11:00:09;28.40;65.30
21355;DHT22;10835;50.148;19.760;2023-09-19T11:03:17;28.40;65.60
21355;DHT22;10835;50.148;19.760;2023-09-19T11:06:05;28.60;64.30
21355;DHT22;10835;50.148;19.760;2023-09-19T11:08:53;28.70;64.10
21355;DHT22;10835;50.148;19.760;2023-09-19T11:11:43;28.60;64.10
21355;DHT22;10835;50.148;19.760;2023-09-19T11:14:39;28.80;64.10
21355;DHT22;10835;50.148;19.760;2023-09-19T11:17:41;28.80;63.70
21355;DHT22;10835;50.148;19.760;2023-09-19T11:20:24;29.00;63.50
21355;DHT22;10835;50.148;19.760;2023-09-19T11:23:25;29.20;62.90
21355;DHT22;10835;50.148;19.760;2023-09-19T11:25:54;28.90;63.00
21355;DHT22;10835;50.148;19.760;2023-09-19T11:28:35;28.70;63.70
21355;DHT22;10835;50.148;19.760;2023-09-19T11:34:41;28.80;63.70
21355;DHT22;10835;50.148;19.760;2023-09-19T11:40:47;29.40;62.50
21355;DHT22;10835;50.148;19.760;2023-09-19T11:43:29;29.30;62.30
21355;DHT22;10835;50.148;19.760;2023-09-19T11:46:05;29.30;62.70
21355;DHT22;10835;50.148;19.760;2023-09-19T11:48:35;29.60;62.20
21355;DHT22;10835;50.148;19.760;2023-09-19T11:51:12;29.60;61.70
21355;DHT22;10835;50.148;19.760;2023-09-19T11:53:47;29.20;62.20
21355;DHT22;10835;50.148;19.760;2023-09-19T11:56:19;29.10;62.80
21355;DHT22;10835;50.148;19.760;2023-09-19T11:58:50;29.00;63.00
21355;DHT22;10835;50.148;19.760;2023-09-19T12:01:26;28.80;63.60
21355;DHT22;10835;50.148;19.760;2023-09-19T12:03:58;28.90;63.60
21355;DHT22;10835;50.148;19.760;2023-09-19T12:06:28;28.80;63.40
21355;DHT22;10835;50.148;19.760;2023-09-19T12:08:59;28.80;63.30
21355;DHT22;10835;50.148;19.760;2023-09-19T12:11:30;28.90;63.90
21355;DHT22;10835;50.148;19.760;2023-09-19T12:14:02;28.70;63.70
21355;DHT22;10835;50.148;19.760;2023-09-19T12:16:32;28.80;64.10
21355;DHT22;10835;50.148;19.760;2023-09-19T12:19:19;29.00;63.80
21355;DHT22;10835;50.148;19.760;2023-09-19T12:22:00;28.80;63.90
21355;DHT22;10835;50.148;19.760;2023-09-19T12:24:32;28.80;63.90
21355;DHT22;10835;50.148;19.760;2023-09-19T12:27:06;29.20;63.30
21355;DHT22;10835;50.148;19.760;2023-09-19T12:29:46;29.30;63.10
21355;DHT22;10835;50.148;19.760;2023-09-19T12:32:16;29.30;62.40
21355;DHT22;10835;50.148;19.760;2023-09-19T12:34:52;29.40;62.60
21355;DHT22;10835;50.148;19.760;2023-09-19T12:37:22;29.50;62.20
21355;DHT22;10835;50.148;19.760;2023-09-19T12:40:04;29.40;62.00
21355;DHT22;10835;50.148;19.760;2023-09-19T12:42:45;29.50;63.00
21355;DHT22;10835;50.148;19.760;2023-09-19T12:45:15;29.40;62.70
21355;DHT22;10835;50.148;19.760;2023-09-19T12:48:19;29.70;62.00
21355;DHT22;10835;50.148;19.760;2023-09-19T12:51:07;29.30;62.50
21355;DHT22;10835;50.148;19.760;2023-09-19T12:53:38;29.60;62.80
21355;DHT22;10835;50.148;19.760;2023-09-19T12:56:14;29.60;62.00
21355;DHT22;10835;50.148;19.760;2023-09-19T12:58:51;29.20;61.90
21355;DHT22;10835;50.148;19.760;2023-09-19T13:01:22;28.90;62.80
21355;DHT22;10835;50.148;19.760;2023-09-19T13:04:14;28.70;63.00
21355;DHT22;10835;50.148;19.760;2023-09-19T13:06:46;28.80;63.10
21355;DHT22;10835;50.148;19.760;2023-09-19T13:09:16;29.00;62.00
21355;DHT22;10835;50.148;19.760;2023-09-19T13:11:45;29.20;62.60
21355;DHT22;10835;50.148;19.760;2023-09-19T13:14:21;29.30;61.70
21355;DHT22;10835;50.148;19.760;2023-09-19T13:16:59;29.00;62.40
21355;DHT22;10835;50.148;19.760;2023-09-19T13:19:38;29.40;61.90
21355;DHT22;10835;50.148;19.760;2023-09-19T13:22:41;29.20;61.20
21355;DHT22;10835;50.148;19.760;2023-09-19T13:25:14;29.50;61.20
21355;DHT22;10835;50.148;19.760;2023-09-19T13:27:47;29.60;61.90
21355;DHT22;10835;50.148;19.760;2023-09-19T13:30:20;29.70;60.80
21355;DHT22;10835;50.148;19.760;2023-09-19T13:32:48;29.60;61.70
21355;DHT22;10835;50.148;19.760;2023-09-19T13:35:17;29.60;61.40
21355;DHT22;10835;50.148;19.760;2023-09-19T13:37:47;29.80;60.80
21355;DHT22;10835;50.148;19.760;2023-09-19T13:40:19;30.10;60.40
21355;DHT22;10835;50.148;19.760;2023-09-19T13:42:47;29.80;60.00
21355;DHT22;10835;50.148;19.760;2023-09-19T13:45:15;30.10;59.60
21355;DHT22;10835;50.148;19.760;2023-09-19T13:47:50;29.90;59.70
21355;DHT22;10835;50.148;19.760;2023-09-19T13:50:19;29.90;60.30
21355;DHT22;10835;50.148;19.760;2023-09-19T13:52:51;30.10;59.90
21355;DHT22;10835;50.148;19.760;2023-09-19T13:55:20;30.00;59.50
21355;DHT22;10835;50.148;19.760;2023-09-19T13:57:49;30.00;60.40
21355;DHT22;10835;50.148;19.760;2023-09-19T14:00:19;30.10;60.80
21355;DHT22;10835;50.148;19.760;2023-09-19T14:02:51;30.40;60.20
21355;DHT22;10835;50.148;19.760;2023-09-19T14:05:20;30.00;59.70
21355;DHT22;10835;50.148;19.760;2023-09-19T14:07:49;30.40;59.10
21355;DHT22;10835;50.148;19.760;2023-09-19T14:10:17;30.50;59.30
21355;DHT22;10835;50.148;19.760;2023-09-19T14:12:46;30.60;59.50
21355;DHT22;10835;50.148;19.760;2023-09-19T14:15:18;30.30;59.70
21355;DHT22;10835;50.148;19.760;2023-09-19T14:17:46;30.20;60.60
21355;DHT22;10835;50.148;19.760;2023-09-19T14:20:16;30.20;61.20
21355;DHT22;10835;50.148;19.760;2023-09-19T14:22:44;30.00;61.00
21355;DHT22;10835;50.148;19.760;2023-09-19T14:25:13;30.20;61.30
21355;DHT22;10835;50.148;19.760;2023-09-19T14:27:41;30.10;61.10
21355;DHT22;10835;50.148;19.760;2023-09-19T14:30:13;30.20;60.50
21355;DHT22;10835;50.148;19.760;2023-09-19T14:32:41;30.20;60.90
21355;DHT22;10835;50.148;19.760;2023-09-19T14:35:10;30.30;60.90
21355;DHT22;10835;50.148;19.760;2023-09-19T14:37:42;30.30;60.10
21355;DHT22;10835;50.148;19.760;2023-09-19T14:40:12;30.20;59.40
21355;DHT22;10835;50.148;19.760;2023-09-19T14:42:46;29.90;59.60
21355;DHT22;10835;50.148;19.760;2023-09-19T14:45:18;29.60;60.00
21355;DHT22;10835;50.148;19.760;2023-09-19T14:47:50;29.80;60.70
21355;DHT22;10835;50.148;19.760;2023-09-19T14:50:20;30.00;60.20
21355;DHT22;10835;50.148;19.760;2023-09-19T14:52:51;30.20;59.90
21355;DHT22;10835;50.148;19.760;2023-09-19T14:55:21;30.30;59.50
21355;DHT22;10835;50.148;19.760;2023-09-19T14:57:50;30.10;58.80
21355;DHT22;10835;50.148;19.760;2023-09-19T15:00:20;30.30;59.20
21355;DHT22;10835;50.148;19.760;2023-09-19T15:02:50;30.30;58.90
21355;DHT22;10835;50.148;19.760;2023-09-19T15:05:21;30.30;58.50
21355;DHT22;10835;50.148;19.760;2023-09-19T15:07:51;30.10;58.90
21355;DHT22;10835;50.148;19.760;2023-09-19T15:10:20;30.30;58.70
21355;DHT22;10835;50.148;19.760;2023-09-19T15:12:49;30.10;58.60
21355;DHT22;10835;50.148;19.760;2023-09-19T15:15:17;30.20;59.30
21355;DHT22;10835;50.148;19.760;2023-09-19T15:17:45;30.50;58.50
21355;DHT22;10835;50.148;19.760;2023-09-19T15:20:14;30.80;58.30
21355;DHT22;10835;50.148;19.760;2023-09-19T15:22:45;30.90;58.60
21355;DHT22;10835;50.148;19.760;2023-09-19T15:25:14;30.90;58.70
21355;DHT22;10835;50.148;19.760;2023-09-19T15:27:43;31.20;58.20
21355;DHT22;10835;50.148;19.760;2023-09-19T15:30:12;31.20;57.50
21355;DHT22;10835;50.148;19.760;2023-09-19T15:32:42;31.10;58.20
21355;DHT22;10835;50.148;19.760;2023-09-19T15:35:11;31.30;57.90
21355;DHT22;10835;50.148;19.760;2023-09-19T15:37:41;31.40;58.20
21355;DHT22;10835;50.148;19.760;2023-09-19T15:40:10;31.50;58.10
21355;DHT22;10835;50.148;19.760;2023-09-19T15:42:41;31.50;58.10
21355;DHT22;10835;50.148;19.760;2023-09-19T15:45:10;31.40;58.00
21355;DHT22;10835;50.148;19.760;2023-09-19T15:47:39;31.50;57.80
21355;DHT22;10835;50.148;19.760;2023-09-19T15:50:08;31.50;58.00
21355;DHT22;10835;50.148;19.760;2023-09-19T15:52:37;31.40;57.80